sensor_id;sensor_type;location;lat;lon;timestamp;P1;durP1;ratioP1;P2;durP2;ratioP2
673;SDS011;319;48.764;9.174;2023-07-02T00:02:24;0.90;;;0.90;;
673;SDS011;319;48.764;9.174;2023-07-02T00:04:52;0.90;;;0.90;;
673;SDS011;319;48.764;9.174;2023-07-02T00:07:19;1.00;;;1.00;;
673;SDS011;319;48.764;9.174;2023-07-02T00:09:46;1.00;;;1.00;;
673;SDS011;319;48.764;9.174;2023-07-02T00:12:13;1.00;;;1.00;;
673;SDS011;319;48.764;9.174;2023-07-02T00:14:40;2.23;;;2.03;;
673;SDS011;319;48.764;9.174;2023-07-02T00:17:07;0.90;;;0.90;;
673;SDS011;319;48.764;9.174;2023-07-02T00:19:37;1.00;;;1.00;;
673;SDS011;319;48.764;9.174;2023-07-02T00:22:08;0.90;;;0.90;;
673;SDS011;319;48.764;9.174;2023-07-02T00:24:35;0.90;;;0.90;;
673;SDS011;319;48.764;9.174;2023-07-02T00:27:02;0.90;;;0.90;;
673;SDS011;319;48.764;9.174;2023-07-02T00:29:30;0.90;;;0.90;;
673;SDS011;319;48.764;9.174;2023-07-02T00:31:57;0.80;;;0.80;;
673;SDS011;319;48.764;9.174;2023-07-02T00:34:24;0.83;;;0.83;;
673;SDS011;319;48.764;9.174;2023-07-02T00:36:51;0.87;;;0.87;;
673;SDS011;319;48.764;9.174;2023-07-02T00:39:19;0.90;;;0.90;;
673;SDS011;319;48.764;9.174;2023-07-02T00:41:46;0.90;;;0.90;;
673;SDS011;319;48.764;9.174;2023-07-02T00:44:13;1.00;;;1.00;;
673;SDS011;319;48.764;9.174;2023-07-02T00:46:40;0.90;;;0.90;;
673;SDS011;319;48.764;9.174;2023-07-02T00:49:07;0.90;;;0.90;;
673;SDS011;319;48.764;9.174;2023-07-02T00:51:35;0.90;;;0.90;;
673;SDS011;319;48.764;9.174;2023-07-02T00:54:02;0.90;;;0.90;;
673;SDS011;319;48.764;9.174;2023-07-02T00:56:31;0.93;;;0.93;;
673;SDS011;319;48.764;9.174;2023-07-02T00:58:58;0.90;;;0.90;;
673;SDS011;319;48.764;9.174;2023-07-02T01:01:26;0.90;;;0.90;;
673;SDS011;319;48.764;9.174;2023-07-02T01:03:56;1.00;;;1.00;;
673;SDS011;319;48.764;9.174;2023-07-02T01:06:25;1.00;;;1.00;;
673;SDS011;319;48.764;9.174;2023-07-02T01:08:54;0.90;;;0.90;;
673;SDS011;319;48.764;9.174;2023-07-02T01:11:23;0.90;;;0.90;;
673;SDS011;319;48.764;9.174;2023-07-02T01:13:56;0.87;;;0.87;;
673;SDS011;319;48.764;9.174;2023-07-02T01:16:27;0.90;;;0.90;;
673;SDS011;319;48.764;9.174;2023-07-02T01:18:56;0.90;;;0.90;;
673;SDS011;319;48.764;9.174;2023-07-02T01:21:24;1.00;;;1.00;;
673;SDS011;319;48.764;9.174;2023-07-02T01:23:52;0.90;;;0.90;;
673;SDS011;319;48.764;9.174;2023-07-02T01:26:20;1.00;;;1.00;;
673;SDS011;319;48.764;9.174;2023-07-02T01:28:47;0.90;;;0.90;;
673;SDS011;319;48.764;9.174;2023-07-02T01:31:14;0.90;;;0.90;;
673;SDS011;319;48.764;9.174;2023-07-02T01:33:41;0.90;;;0.90;;
673;SDS011;319;48.764;9.174;2023-07-02T01:36:08;0.90;;;0.90;;
673;SDS011;319;48.764;9.174;2023-07-02T01:38:36;0.93;;;0.93;;
673;SDS011;319;48.764;9.174;2023-07-02T01:41:03;0.80;;;0.80;;
673;SDS011;319;48.764;9.174;2023-07-02T01:43:30;0.90;;;0.90;;
673;SDS011;319;48.764;9.174;2023-07-02T01:45:57;0.90;;;0.90;;
673;SDS011;319;48.764;9.174;2023-07-02T01:48:24;0.90;;;0.90;;
673;SDS011;319;48.764;9.174;2023-07-02T01:50:51;0.90;;;0.90;;
673;SDS011;319;48.764;9.174;2023-07-02T01:53:18;1.00;;;1.00;;
673;SDS011;319;48.764;9.174;2023-07-02T01:55:47;0.90;;;0.90;;
673;SDS011;319;48.764;9.174;2023-07-02T01:58:14;0.90;;;0.90;;
673;SDS011;319;48.764;9.174;2023-07-02T02:00:41;0.90;;;0.90;;
673;SDS011;319;48.764;9.174;2023-07-02T02:03:07;1.00;;;1.00;;
673;SDS011;319;48.764;9.174;2023-07-02T02:05:34;0.90;;;0.90;;
673;SDS011;319;48.764;9.174;2023-07-02T02:08:01;0.90;;;0.90;;
673;SDS011;319;48.764;9.174;2023-07-02T02:10:28;1.00;;;1.00;;
673;SDS011;319;48.764;9.174;2023-07-02T02:12:57;0.90;;;0.90;;
673;SDS011;319;48.764;9.174;2023-07-02T02:15:23;0.90;;;0.90;;
673;SDS011;319;48.764;9.174;2023-07-02T02:17:50;0.80;;;0.80;;
673;SDS011;319;48.764;9.174;2023-07-02T02:20:18;0.90;;;0.90;;
673;SDS011;319;48.764;9.174;2023-07-02T02:22:45;0.90;;;0.90;;
673;SDS011;319;48.764;9.174;2023-07-02T02:25:12;0.90;;;0.90;;
673;SDS011;319;48.764;9.174;2023-07-02T02:27:39;0.90;;;0.90;;
673;SDS011;319;48.764;9.174;2023-07-02T02:30:08;0.90;;;0.90;;
673;SDS011;319;48.764;9.174;2023-07-02T02:32:35;0.90;;;0.90;;
673;SDS011;319;48.764;9.174;2023-07-02T02:35:03;0.90;;;0.90;;
673;SDS011;319;48.764;9.174;2023-07-02T02:37:30;0.90;;;0.90;;
673;SDS011;319;48.764;9.174;2023-07-02T02:39:59;0.90;;;0.90;;
673;SDS011;319;48.764;9.174;2023-07-02T02:42:25;0.90;;;0.90;;
673;SDS011;319;48.764;9.174;2023-07-02T02:44:52;0.90;;;0.90;;
673;SDS011;319;48.764;9.174;2023-07-02T02:47:21;0.90;;;0.90;;
673;SDS011;319;48.764;9.174;2023-07-02T02:49:47;1.00;;;1.00;;
673;SDS011;319;48.764;9.174;2023-07-02T02:52:14;1.00;;;1.00;;
673;SDS011;319;48.764;9.174;2023-07-02T02:54:41;0.90;;;0.90;;
673;SDS011;319;48.764;9.174;2023-07-02T02:57:08;0.90;;;0.90;;
673;SDS011;319;48.764;9.174;2023-07-02T02:59:35;0.90;;;0.90;;
673;SDS011;319;48.764;9.174;2023-07-02T03:02:02;0.90;;;0.90;;
673;SDS011;319;48.764;9.174;2023-07-02T03:04:30;0.90;;;0.90;;
673;SDS011;319;48.764;9.174;2023-07-02T03:07:00;0.90;;;0.90;;
673;SDS011;319;48.764;9.174;2023-07-02T03:09:28;0.90;;;0.90;;
673;SDS011;319;48.764;9.174;2023-07-02T03:11:54;0.90;;;0.90;;
673;SDS011;319;48.764;9.174;2023-07-02T03:14:21;0.90;;;0.90;;
673;SDS011;319;48.764;9.174;2023-07-02T03:16:48;0.90;;;0.90;;
673;SDS011;319;48.764;9.174;2023-07-02T03:19:15;0.90;;;0.90;;
673;SDS011;319;48.764;9.174;2023-07-02T03:21:44;0.90;;;0.90;;
673;SDS011;319;48.764;9.174;2023-07-02T03:24:11;0.97;;;0.97;;
673;SDS011;319;48.764;9.174;2023-07-02T03:26:38;0.90;;;0.90;;
673;SDS011;319;48.764;9.174;2023-07-02T03:29:05;1.00;;;1.00;;
673;SDS011;319;48.764;9.174;2023-07-02T03:31:32;0.90;;;0.90;;
673;SDS011;319;48.764;9.174;2023-07-02T03:34:01;1.00;;;1.00;;
673;SDS011;319;48.764;9.174;2023-07-02T03:36:29;1.00;;;1.00;;
673;SDS011;319;48.764;9.174;2023-07-02T03:38:58;0.90;;;0.90;;
673;SDS011;319;48.764;9.174;2023-07-02T03:41:25;0.90;;;0.90;;
673;SDS011;319;48.764;9.174;2023-07-02T03:43:51;0.90;;;0.90;;
673;SDS011;319;48.764;9.174;2023-07-02T03:46:18;0.90;;;0.90;;
673;SDS011;319;48.764;9.174;2023-07-02T03:48:45;1.00;;;1.00;;
673;SDS011;319;48.764;9.174;2023-07-02T03:51:12;0.90;;;0.90;;
673;SDS011;319;48.764;9.174;2023-07-02T03:53:40;0.90;;;0.90;;
673;SDS011;319;48.764;9.174;2023-07-02T03:56:08;0.90;;;0.90;;
673;SDS011;319;48.764;9.174;2023-07-02T03:58:35;0.93;;;0.93;;
673;SDS011;319;48.764;9.174;2023-07-02T04:01:02;0.90;;;0.90;;
673;SDS011;319;48.764;9.174;2023-07-02T04:03:29;1.00;;;1.00;;
673;SDS011;319;48.764;9.174;2023-07-02T04:05:56;0.90;;;0.90;;
673;SDS011;319;48.764;9.174;2023-07-02T04:08:22;1.00;;;1.00;;
673;SDS011;319;48.764;9.174;2023-07-02T04:10:50;0.90;;;0.90;;
673;SDS011;319;48.764;9.174;2023-07-02T04:13:18;1.10;;;1.10;;
673;SDS011;319;48.764;9.174;2023-07-02T04:15:45;1.00;;;1.00;;
673;SDS011;319;48.764;9.174;2023-07-02T04:18:13;0.97;;;0.97;;
673;SDS011;319;48.764;9.174;2023-07-02T04:20:40;0.90;;;0.90;;
673;SDS011;319;48.764;9.174;2023-07-02T04:23:07;1.00;;;1.00;;
673;SDS011;319;48.764;9.174;2023-07-02T04:25:34;1.00;;;1.00;;
673;SDS011;319;48.764;9.174;2023-07-02T04:28:00;0.93;;;0.93;;
673;SDS011;319;48.764;9.174;2023-07-02T04:30:29;1.00;;;1.00;;
673;SDS011;319;48.764;9.174;2023-07-02T04:32:56;0.90;;;0.90;;
673;SDS011;319;48.764;9.174;2023-07-02T04:35:22;0.90;;;0.90;;
673;SDS011;319;48.764;9.174;2023-07-02T04:37:49;1.00;;;1.00;;
673;SDS011;319;48.764;9.174;2023-07-02T04:40:16;0.90;;;0.90;;
673;SDS011;319;48.764;9.174;2023-07-02T04:42:43;0.90;;;0.90;;
673;SDS011;319;48.764;9.174;2023-07-02T04:45:11;0.90;;;0.90;;
673;SDS011;319;48.764;9.174;2023-07-02T04:47:41;0.90;;;0.90;;
673;SDS011;319;48.764;9.174;2023-07-02T04:50:08;1.00;;;1.00;;
673;SDS011;319;48.764;9.174;2023-07-02T04:52:36;1.00;;;1.00;;
673;SDS011;319;48.764;9.174;2023-07-02T04:55:03;0.90;;;0.90;;
673;SDS011;319;48.764;9.174;2023-07-02T04:57:30;1.00;;;1.00;;
673;SDS011;319;48.764;9.174;2023-07-02T04:59:57;0.90;;;0.90;;
673;SDS011;319;48.764;9.174;2023-07-02T05:02:24;1.00;;;1.00;;
673;SDS011;319;48.764;9.174;2023-07-02T05:04:52;1.00;;;1.00;;
673;SDS011;319;48.764;9.174;2023-07-02T05:07:19;0.90;;;0.90;;
673;SDS011;319;48.764;9.174;2023-07-02T05:09:46;0.90;;;0.90;;
673;SDS011;319;48.764;9.174;2023-07-02T05:12:15;0.90;;;0.90;;
673;SDS011;319;48.764;9.174;2023-07-02T05:14:42;0.90;;;0.90;;
673;SDS011;319;48.764;9.174;2023-07-02T05:17:09;1.57;;;1.57;;
673;SDS011;319;48.764;9.174;2023-07-02T05:19:37;0.90;;;0.90;;
673;SDS011;319;48.764;9.174;2023-07-02T05:22:07;0.90;;;0.90;;
673;SDS011;319;48.764;9.174;2023-07-02T05:24:34;0.87;;;0.87;;
673;SDS011;319;48.764;9.174;2023-07-02T05:27:01;0.90;;;0.90;;
673;SDS011;319;48.764;9.174;2023-07-02T05:29:28;0.90;;;0.90;;
673;SDS011;319;48.764;9.174;2023-07-02T05:31:55;0.80;;;0.80;;
673;SDS011;319;48.764;9.174;2023-07-02T05:34:21;0.90;;;0.90;;
673;SDS011;319;48.764;9.174;2023-07-02T05:36:48;0.90;;;0.90;;
673;SDS011;319;48.764;9.174;2023-07-02T05:39:17;0.90;;;0.90;;
673;SDS011;319;48.764;9.174;2023-07-02T05:41:45;0.90;;;0.90;;
673;SDS011;319;48.764;9.174;2023-07-02T05:44:11;0.90;;;0.90;;
673;SDS011;319;48.764;9.174;2023-07-02T05:46:38;0.90;;;0.90;;
673;SDS011;319;48.764;9.174;2023-07-02T05:49:05;0.90;;;0.90;;
673;SDS011;319;48.764;9.174;2023-07-02T05:51:32;0.90;;;0.90;;
673;SDS011;319;48.764;9.174;2023-07-02T05:54:10;0.90;;;0.90;;
673;SDS011;319;48.764;9.174;2023-07-02T05:56:44;0.90;;;0.90;;
673;SDS011;319;48.764;9.174;2023-07-02T05:59:10;0.90;;;0.90;;
673;SDS011;319;48.764;9.174;2023-07-02T06:01:39;0.80;;;0.80;;
673;SDS011;319;48.764;9.174;2023-07-02T06:04:06;0.90;;;0.90;;
673;SDS011;319;48.764;9.174;2023-07-02T06:06:33;2.40;;;2.40;;
673;SDS011;319;48.764;9.174;2023-07-02T06:09:00;9.87;;;9.67;;
673;SDS011;319;48.764;9.174;2023-07-02T06:11:28;11.00;;;10.70;;
673;SDS011;319;48.764;9.174;2023-07-02T06:13:56;8.17;;;7.97;;
673;SDS011;319;48.764;9.174;2023-07-02T06:16:25;12.23;;;11.93;;
673;SDS011;319;48.764;9.174;2023-07-02T06:18:52;9.20;;;9.00;;
673;SDS011;319;48.764;9.174;2023-07-02T06:21:19;7.70;;;7.50;;
673;SDS011;319;48.764;9.174;2023-07-02T06:23:46;9.73;;;9.53;;
673;SDS011;319;48.764;9.174;2023-07-02T06:26:13;0.83;;;0.83;;
673;SDS011;319;48.764;9.174;2023-07-02T06:28:40;10.97;;;10.67;;
673;SDS011;319;48.764;9.174;2023-07-02T06:31:09;0.80;;;0.80;;
673;SDS011;319;48.764;9.174;2023-07-02T06:33:38;0.80;;;0.80;;
673;SDS011;319;48.764;9.174;2023-07-02T06:36:08;0.90;;;0.90;;
673;SDS011;319;48.764;9.174;2023-07-02T06:38:40;0.90;;;0.90;;
673;SDS011;319;48.764;9.174;2023-07-02T06:41:07;12.27;;;11.97;;
673;SDS011;319;48.764;9.174;2023-07-02T06:43:37;0.80;;;0.80;;
673;SDS011;319;48.764;9.174;2023-07-02T06:46:04;9.87;;;9.63;;
673;SDS011;319;48.764;9.174;2023-07-02T06:48:32;6.70;;;6.50;;
673;SDS011;319;48.764;9.174;2023-07-02T06:50:59;1.40;;;1.40;;
673;SDS011;319;48.764;9.174;2023-07-02T06:53:27;0.90;;;0.90;;
673;SDS011;319;48.764;9.174;2023-07-02T06:55:54;0.80;;;0.80;;
673;SDS011;319;48.764;9.174;2023-07-02T06:58:20;2.50;;;2.40;;
673;SDS011;319;48.764;9.174;2023-07-02T07:00:47;9.57;;;9.37;;
673;SDS011;319;48.764;9.174;2023-07-02T07:03:15;6.97;;;6.77;;
673;SDS011;319;48.764;9.174;2023-07-02T07:05:46;9.63;;;9.43;;
673;SDS011;319;48.764;9.174;2023-07-02T07:08:13;14.30;;;13.90;;
673;SDS011;319;48.764;9.174;2023-07-02T07:10:40;14.20;;;13.80;;
673;SDS011;319;48.764;9.174;2023-07-02T07:13:07;14.10;;;13.70;;
673;SDS011;319;48.764;9.174;2023-07-02T07:15:34;12.10;;;11.80;;
673;SDS011;319;48.764;9.174;2023-07-02T07:18:01;11.70;;;11.40;;
673;SDS011;319;48.764;9.174;2023-07-02T07:20:29;11.60;;;11.30;;
673;SDS011;319;48.764;9.174;2023-07-02T07:22:57;12.00;;;11.70;;
673;SDS011;319;48.764;9.174;2023-07-02T07:25:24;12.70;;;12.40;;
673;SDS011;319;48.764;9.174;2023-07-02T07:27:51;11.20;;;10.90;;
673;SDS011;319;48.764;9.174;2023-07-02T07:30:18;10.80;;;10.50;;
673;SDS011;319;48.764;9.174;2023-07-02T07:32:48;9.20;;;9.00;;
673;SDS011;319;48.764;9.174;2023-07-02T07:35:15;11.00;;;10.70;;
673;SDS011;319;48.764;9.174;2023-07-02T07:37:43;9.73;;;9.53;;
673;SDS011;319;48.764;9.174;2023-07-02T07:40:14;0.80;;;0.80;;
673;SDS011;319;48.764;9.174;2023-07-02T07:42:41;6.03;;;5.93;;
673;SDS011;319;48.764;9.174;2023-07-02T07:45:09;6.50;;;6.30;;
673;SDS011;319;48.764;9.174;2023-07-02T07:47:37;5.70;;;5.60;;
673;SDS011;319;48.764;9.174;2023-07-02T07:50:05;8.90;;;8.70;;
673;SDS011;319;48.764;9.174;2023-07-02T07:52:35;8.30;;;8.10;;
673;SDS011;319;48.764;9.174;2023-07-02T07:55:03;7.50;;;7.30;;
673;SDS011;319;48.764;9.174;2023-07-02T07:57:32;8.00;;;7.80;;
673;SDS011;319;48.764;9.174;2023-07-02T08:00:00;7.20;;;7.00;;
673;SDS011;319;48.764;9.174;2023-07-02T08:02:29;3.60;;;3.50;;
673;SDS011;319;48.764;9.174;2023-07-02T08:04:56;6.23;;;6.07;;
673;SDS011;319;48.764;9.174;2023-07-02T08:07:23;7.57;;;7.37;;
673;SDS011;319;48.764;9.174;2023-07-02T08:09:50;1.87;;;1.87;;
673;SDS011;319;48.764;9.174;2023-07-02T08:12:17;5.87;;;5.77;;
673;SDS011;319;48.764;9.174;2023-07-02T08:14:45;7.90;;;7.70;;
673;SDS011;319;48.764;9.174;2023-07-02T08:17:12;3.97;;;3.87;;
673;SDS011;319;48.764;9.174;2023-07-02T08:19:39;8.20;;;8.00;;
673;SDS011;319;48.764;9.174;2023-07-02T08:22:06;7.10;;;6.90;;
673;SDS011;319;48.764;9.174;2023-07-02T08:24:33;5.60;;;5.50;;
673;SDS011;319;48.764;9.174;2023-07-02T08:27:00;9.47;;;9.27;;
673;SDS011;319;48.764;9.174;2023-07-02T08:29:27;8.93;;;8.73;;
673;SDS011;319;48.764;9.174;2023-07-02T08:31:56;10.40;;;10.10;;
673;SDS011;319;48.764;9.174;2023-07-02T08:34:23;10.07;;;9.77;;
673;SDS011;319;48.764;9.174;2023-07-02T08:36:50;6.13;;;6.00;;
673;SDS011;319;48.764;9.174;2023-07-02T08:39:17;11.27;;;10.97;;
673;SDS011;319;48.764;9.174;2023-07-02T08:41:45;8.77;;;8.53;;
673;SDS011;319;48.764;9.174;2023-07-02T08:44:13;9.70;;;9.50;;
673;SDS011;319;48.764;9.174;2023-07-02T08:46:41;9.37;;;9.17;;
673;SDS011;319;48.764;9.174;2023-07-02T08:49:10;10.07;;;9.77;;
673;SDS011;319;48.764;9.174;2023-07-02T08:51:37;11.90;;;11.60;;
673;SDS011;319;48.764;9.174;2023-07-02T08:54:04;11.17;;;10.87;;
673;SDS011;319;48.764;9.174;2023-07-02T08:56:31;11.43;;;11.13;;
673;SDS011;319;48.764;9.174;2023-07-02T08:58:57;11.20;;;10.90;;
673;SDS011;319;48.764;9.174;2023-07-02T09:01:24;7.80;;;7.60;;
673;SDS011;319;48.764;9.174;2023-07-02T09:03:57;7.07;;;6.87;;
673;SDS011;319;48.764;9.174;2023-07-02T09:06:26;6.87;;;6.67;;
673;SDS011;319;48.764;9.174;2023-07-02T09:09:02;9.10;;;8.90;;
673;SDS011;319;48.764;9.174;2023-07-02T09:11:31;9.97;;;9.70;;
673;SDS011;319;48.764;9.174;2023-07-02T09:13:58;9.80;;;9.60;;
673;SDS011;319;48.764;9.174;2023-07-02T09:16:28;10.50;;;10.20;;
673;SDS011;319;48.764;9.174;2023-07-02T09:18:59;10.83;;;10.53;;
673;SDS011;319;48.764;9.174;2023-07-02T09:21:37;4.63;;;4.53;;
673;SDS011;319;48.764;9.174;2023-07-02T09:24:15;9.90;;;9.67;;
673;SDS011;319;48.764;9.174;2023-07-02T09:26:44;7.57;;;7.37;;
673;SDS011;319;48.764;9.174;2023-07-02T09:29:11;9.07;;;8.87;;
673;SDS011;319;48.764;9.174;2023-07-02T09:31:46;10.03;;;9.73;;
673;SDS011;319;48.764;9.174;2023-07-02T09:34:13;9.07;;;8.87;;
673;SDS011;319;48.764;9.174;2023-07-02T09:36:42;1.23;;;1.23;;
673;SDS011;319;48.764;9.174;2023-07-02T09:39:11;10.80;;;10.50;;
673;SDS011;319;48.764;9.174;2023-07-02T09:41:39;10.40;;;10.10;;
673;SDS011;319;48.764;9.174;2023-07-02T09:44:08;8.00;;;7.80;;
673;SDS011;319;48.764;9.174;2023-07-02T09:46:36;11.27;;;10.97;;
673;SDS011;319;48.764;9.174;2023-07-02T09:49:08;9.00;;;8.80;;
673;SDS011;319;48.764;9.174;2023-07-02T09:51:41;8.50;;;8.30;;
673;SDS011;319;48.764;9.174;2023-07-02T09:54:10;2.20;;;2.20;;
673;SDS011;319;48.764;9.174;2023-07-02T09:56:39;9.60;;;9.40;;
673;SDS011;319;48.764;9.174;2023-07-02T09:59:07;10.13;;;9.83;;
673;SDS011;319;48.764;9.174;2023-07-02T10:01:34;7.53;;;7.33;;
673;SDS011;319;48.764;9.174;2023-07-02T10:04:10;7.50;;;7.30;;
673;SDS011;319;48.764;9.174;2023-07-02T10:06:46;8.70;;;8.50;;
673;SDS011;319;48.764;9.174;2023-07-02T10:09:13;8.10;;;7.90;;
673;SDS011;319;48.764;9.174;2023-07-02T10:11:41;1.60;;;1.60;;
673;SDS011;319;48.764;9.174;2023-07-02T10:14:08;2.30;;;2.30;;
673;SDS011;319;48.764;9.174;2023-07-02T10:16:47;4.50;;;4.40;;
673;SDS011;319;48.764;9.174;2023-07-02T10:19:15;1.80;;;1.80;;
673;SDS011;319;48.764;9.174;2023-07-02T10:21:43;3.73;;;3.63;;
673;SDS011;319;48.764;9.174;2023-07-02T10:24:17;7.30;;;7.10;;
673;SDS011;319;48.764;9.174;2023-07-02T10:26:54;8.10;;;7.90;;
673;SDS011;319;48.764;9.174;2023-07-02T10:29:22;5.57;;;5.47;;
673;SDS011;319;48.764;9.174;2023-07-02T10:31:50;5.90;;;5.80;;
673;SDS011;319;48.764;9.174;2023-07-02T10:34:27;5.43;;;5.33;;
673;SDS011;319;48.764;9.174;2023-07-02T10:36:57;6.10;;;6.00;;
673;SDS011;319;48.764;9.174;2023-07-02T10:39:25;5.33;;;5.23;;
673;SDS011;319;48.764;9.174;2023-07-02T10:42:05;7.37;;;7.17;;
673;SDS011;319;48.764;9.174;2023-07-02T10:44:46;7.13;;;6.93;;
673;SDS011;319;48.764;9.174;2023-07-02T10:47:14;7.47;;;7.27;;
673;SDS011;319;48.764;9.174;2023-07-02T10:49:41;7.90;;;7.70;;
673;SDS011;319;48.764;9.174;2023-07-02T10:52:09;10.33;;;10.03;;
673;SDS011;319;48.764;9.174;2023-07-02T10:54:40;10.40;;;10.10;;
673;SDS011;319;48.764;9.174;2023-07-02T10:57:08;10.47;;;10.17;;
673;SDS011;319;48.764;9.174;2023-07-02T10:59:35;10.63;;;10.33;;
673;SDS011;319;48.764;9.174;2023-07-02T11:02:02;8.10;;;7.90;;
673;SDS011;319;48.764;9.174;2023-07-02T11:04:31;10.37;;;10.07;;
673;SDS011;319;48.764;9.174;2023-07-02T11:06:59;9.47;;;9.27;;
673;SDS011;319;48.764;9.174;2023-07-02T11:09:28;7.13;;;6.93;;
673;SDS011;319;48.764;9.174;2023-07-02T11:11:58;7.63;;;7.43;;
673;SDS011;319;48.764;9.174;2023-07-02T11:14:26;0.80;;;0.80;;
673;SDS011;319;48.764;9.174;2023-07-02T11:16:57;3.97;;;3.87;;
673;SDS011;319;48.764;9.174;2023-07-02T11:19:27;1.30;;;1.30;;
673;SDS011;319;48.764;9.174;2023-07-02T11:21:55;5.20;;;5.10;;
673;SDS011;319;48.764;9.174;2023-07-02T11:24:27;3.30;;;3.20;;
673;SDS011;319;48.764;9.174;2023-07-02T11:26:58;5.30;;;5.20;;
673;SDS011;319;48.764;9.174;2023-07-02T11:29:26;7.47;;;7.27;;
673;SDS011;319;48.764;9.174;2023-07-02T11:31:54;5.50;;;5.40;;
673;SDS011;319;48.764;9.174;2023-07-02T11:34:30;0.90;;;0.90;;
673;SDS011;319;48.764;9.174;2023-07-02T11:36:57;0.73;;;0.73;;
673;SDS011;319;48.764;9.174;2023-07-02T11:39:24;1.00;;;1.00;;
673;SDS011;319;48.764;9.174;2023-07-02T11:41:52;0.80;;;0.80;;
673;SDS011;319;48.764;9.174;2023-07-02T11:44:19;0.70;;;0.70;;
673;SDS011;319;48.764;9.174;2023-07-02T11:46:46;0.87;;;0.87;;
673;SDS011;319;48.764;9.174;2023-07-02T11:49:14;0.90;;;0.90;;
673;SDS011;319;48.764;9.174;2023-07-02T11:51:41;0.90;;;0.90;;
673;SDS011;319;48.764;9.174;2023-07-02T11:54:13;0.90;;;0.90;;
673;SDS011;319;48.764;9.174;2023-07-02T11:56:40;0.90;;;0.90;;
673;SDS011;319;48.764;9.174;2023-07-02T11:59:12;0.90;;;0.90;;
673;SDS011;319;48.764;9.174;2023-07-02T12:01:39;0.80;;;0.80;;
673;SDS011;319;48.764;9.174;2023-07-02T12:04:06;0.87;;;0.87;;
673;SDS011;319;48.764;9.174;2023-07-02T12:06:33;0.80;;;0.80;;
673;SDS011;319;48.764;9.174;2023-07-02T12:09:00;0.80;;;0.80;;
673;SDS011;319;48.764;9.174;2023-07-02T12:11:27;0.80;;;0.80;;
673;SDS011;319;48.764;9.174;2023-07-02T12:13:54;0.80;;;0.80;;
673;SDS011;319;48.764;9.174;2023-07-02T12:16:22;0.80;;;0.80;;
673;SDS011;319;48.764;9.174;2023-07-02T12:18:49;0.80;;;0.80;;
673;SDS011;319;48.764;9.174;2023-07-02T12:21:16;0.80;;;0.80;;
673;SDS011;319;48.764;9.174;2023-07-02T12:23:45;0.80;;;0.80;;
673;SDS011;319;48.764;9.174;2023-07-02T12:26:12;0.80;;;0.80;;
673;SDS011;319;48.764;9.174;2023-07-02T12:28:39;0.80;;;0.80;;
673;SDS011;319;48.764;9.174;2023-07-02T12:31:06;0.80;;;0.80;;
673;SDS011;319;48.764;9.174;2023-07-02T12:33:35;0.80;;;0.80;;
673;SDS011;319;48.764;9.174;2023-07-02T12:36:02;0.80;;;0.80;;
673;SDS011;319;48.764;9.174;2023-07-02T12:38:29;0.80;;;0.80;;
673;SDS011;319;48.764;9.174;2023-07-02T12:40:56;0.80;;;0.80;;
673;SDS011;319;48.764;9.174;2023-07-02T12:43:23;0.80;;;0.80;;
673;SDS011;319;48.764;9.174;2023-07-02T12:45:51;0.90;;;0.90;;
673;SDS011;319;48.764;9.174;2023-07-02T12:48:21;0.80;;;0.80;;
673;SDS011;319;48.764;9.174;2023-07-02T12:50:55;0.83;;;0.83;;
673;SDS011;319;48.764;9.174;2023-07-02T12:53:23;0.80;;;0.80;;
673;SDS011;319;48.764;9.174;2023-07-02T12:55:51;0.90;;;0.90;;
673;SDS011;319;48.764;9.174;2023-07-02T12:58:18;0.80;;;0.80;;
673;SDS011;319;48.764;9.174;2023-07-02T13:00:46;0.80;;;0.80;;
673;SDS011;319;48.764;9.174;2023-07-02T13:03:14;0.90;;;0.90;;
673;SDS011;319;48.764;9.174;2023-07-02T13:05:43;0.80;;;0.80;;
673;SDS011;319;48.764;9.174;2023-07-02T13:08:11;3.77;;;3.67;;
673;SDS011;319;48.764;9.174;2023-07-02T13:10:38;0.87;;;0.87;;
673;SDS011;319;48.764;9.174;2023-07-02T13:13:05;0.80;;;0.80;;
673;SDS011;319;48.764;9.174;2023-07-02T13:15:32;0.90;;;0.90;;
673;SDS011;319;48.764;9.174;2023-07-02T13:17:59;0.80;;;0.80;;
673;SDS011;319;48.764;9.174;2023-07-02T13:20:26;0.80;;;0.80;;
673;SDS011;319;48.764;9.174;2023-07-02T13:22:53;0.80;;;0.80;;
673;SDS011;319;48.764;9.174;2023-07-02T13:25:21;0.80;;;0.80;;
673;SDS011;319;48.764;9.174;2023-07-02T13:27:48;0.90;;;0.90;;
673;SDS011;319;48.764;9.174;2023-07-02T13:30:15;7.00;;;6.80;;
673;SDS011;319;48.764;9.174;2023-07-02T13:32:42;6.83;;;6.63;;
673;SDS011;319;48.764;9.174;2023-07-02T13:35:09;6.40;;;6.30;;
673;SDS011;319;48.764;9.174;2023-07-02T13:37:36;5.43;;;5.33;;
673;SDS011;319;48.764;9.174;2023-07-02T13:40:04;6.20;;;6.10;;
673;SDS011;319;48.764;9.174;2023-07-02T13:42:35;6.40;;;6.20;;
673;SDS011;319;48.764;9.174;2023-07-02T13:45:02;5.87;;;5.77;;
673;SDS011;319;48.764;9.174;2023-07-02T13:47:29;6.10;;;6.00;;
673;SDS011;319;48.764;9.174;2023-07-02T13:49:56;5.80;;;5.70;;
673;SDS011;319;48.764;9.174;2023-07-02T13:52:23;3.40;;;3.30;;
673;SDS011;319;48.764;9.174;2023-07-02T13:54:51;2.70;;;2.60;;
673;SDS011;319;48.764;9.174;2023-07-02T13:57:18;2.90;;;2.80;;
673;SDS011;319;48.764;9.174;2023-07-02T13:59:46;1.97;;;1.97;;
673;SDS011;319;48.764;9.174;2023-07-02T14:02:14;1.70;;;1.70;;
673;SDS011;319;48.764;9.174;2023-07-02T14:04:40;2.17;;;2.17;;
673;SDS011;319;48.764;9.174;2023-07-02T14:07:07;2.00;;;2.00;;
673;SDS011;319;48.764;9.174;2023-07-02T14:09:34;2.13;;;2.13;;
673;SDS011;319;48.764;9.174;2023-07-02T14:12:04;3.00;;;2.90;;
673;SDS011;319;48.764;9.174;2023-07-02T14:14:31;2.90;;;2.80;;
673;SDS011;319;48.764;9.174;2023-07-02T14:17:00;0.80;;;0.80;;
673;SDS011;319;48.764;9.174;2023-07-02T14:19:30;8.00;;;7.80;;
673;SDS011;319;48.764;9.174;2023-07-02T14:21:57;6.70;;;6.50;;
673;SDS011;319;48.764;9.174;2023-07-02T14:24:24;7.60;;;7.40;;
673;SDS011;319;48.764;9.174;2023-07-02T14:26:51;7.70;;;7.50;;
673;SDS011;319;48.764;9.174;2023-07-02T14:29:18;7.27;;;7.07;;
673;SDS011;319;48.764;9.174;2023-07-02T14:31:45;7.20;;;7.00;;
673;SDS011;319;48.764;9.174;2023-07-02T14:34:14;7.60;;;7.40;;
673;SDS011;319;48.764;9.174;2023-07-02T14:36:41;8.20;;;8.00;;
673;SDS011;319;48.764;9.174;2023-07-02T14:39:08;7.20;;;7.00;;
673;SDS011;319;48.764;9.174;2023-07-02T14:41:35;7.10;;;6.90;;
673;SDS011;319;48.764;9.174;2023-07-02T14:44:02;7.43;;;7.23;;
673;SDS011;319;48.764;9.174;2023-07-02T14:46:30;7.30;;;7.10;;
673;SDS011;319;48.764;9.174;2023-07-02T14:49:00;6.83;;;6.63;;
673;SDS011;319;48.764;9.174;2023-07-02T14:51:28;6.30;;;6.20;;
673;SDS011;319;48.764;9.174;2023-07-02T14:53:55;7.80;;;7.60;;
673;SDS011;319;48.764;9.174;2023-07-02T14:56:22;7.70;;;7.50;;
673;SDS011;319;48.764;9.174;2023-07-02T14:58:49;5.10;;;5.00;;
673;SDS011;319;48.764;9.174;2023-07-02T15:01:16;7.60;;;7.40;;
673;SDS011;319;48.764;9.174;2023-07-02T15:03:43;8.30;;;8.10;;
673;SDS011;319;48.764;9.174;2023-07-02T15:06:14;5.90;;;5.80;;
673;SDS011;319;48.764;9.174;2023-07-02T15:08:44;5.00;;;4.90;;
673;SDS011;319;48.764;9.174;2023-07-02T15:11:11;5.37;;;5.27;;
673;SDS011;319;48.764;9.174;2023-07-02T15:13:40;5.43;;;5.33;;
673;SDS011;319;48.764;9.174;2023-07-02T15:16:08;6.70;;;6.50;;
673;SDS011;319;48.764;9.174;2023-07-02T15:18:36;4.50;;;4.40;;
673;SDS011;319;48.764;9.174;2023-07-02T15:21:03;4.67;;;4.57;;
673;SDS011;319;48.764;9.174;2023-07-02T15:23:30;7.80;;;7.60;;
673;SDS011;319;48.764;9.174;2023-07-02T15:26:02;8.40;;;8.20;;
673;SDS011;319;48.764;9.174;2023-07-02T15:28:30;5.50;;;5.40;;
673;SDS011;319;48.764;9.174;2023-07-02T15:31:02;6.77;;;6.57;;
673;SDS011;319;48.764;9.174;2023-07-02T15:33:31;6.33;;;6.17;;
673;SDS011;319;48.764;9.174;2023-07-02T15:35:58;6.10;;;6.00;;
673;SDS011;319;48.764;9.174;2023-07-02T15:38:26;7.00;;;6.80;;
673;SDS011;319;48.764;9.174;2023-07-02T15:41:04;4.47;;;4.37;;
673;SDS011;319;48.764;9.174;2023-07-02T15:43:34;6.70;;;6.50;;
673;SDS011;319;48.764;9.174;2023-07-02T15:46:01;7.60;;;7.40;;
673;SDS011;319;48.764;9.174;2023-07-02T15:48:28;7.63;;;7.43;;